EGSC - Cambridge
Distance from station: E 5mi, 14km
Updated: 02/22/2018 11:20am
NOT Current
Clear
Clear
 Wind from varies
Wind: varies 3 mph , 6 km/h
Temperature: 28°F , -2°C
Dew Point: 23°F , -5°C
Humidity: 80%
Barometer: 30.24 inHg , 1024 hPa
Summary: Clear
Visibility: greater than 7 miles , 10 km
2018/02/22 19:20 EGSC 221920Z VRB03KT CAVOK M02/M05 Q1024